Veslos, Denmark
Current Conditions -  °F | °C
As of 1:20 AM on Thursday 27 Nov 2014 (Local Time) from EKYT Reporting Station
Broken Clouds Broken Clouds  
Wind Chill: 40°   Ceiling: 2000
Heat Index: 45°   Visibility: 6mi
Dew Point: 39°   Wind: 8mph
Humidity: 81%   Direction: 110°ESE
Pressure: 30.12"   Gusts: NA
Location:  57.02°N, 8.97°E
Report Text: EKYT 270020Z 11007KT 9999 BKN020 07/04 Q1020
Loading
Personal Weather Stations






























Interactive Weather Map New forecast layout! Learn more

10-Day Weather Forecast

Advertisements
Track Severe Weather on mobile